Time;durP1;ratioP1;P1;durP2;ratioP2;P2;SDS_P1;SDS_P2;PMS_P1;PMS_P2;Temp;Humidity;BMP_temperature;BMP_pressure;BME280_temperature;BME280_humidity;BME280_pressure;Samples;Min_cycle;Max_cycle;Signal;HPM_P1;HPM_P2
2021/03/14 00:00:43;;;;;;;4.15;3.42;;;;;;;;;;5010489;28;20025;-64
2021/03/14 00:03:09;;;;;;;6.38;3.95;;;;;;;;;;5010202;28;20022;-64
2021/03/14 00:05:36;;;;;;;5.15;3.72;;;;;;;;;;5010116;28;20083;-64
2021/03/14 00:08:01;;;;;;;5.35;3.78;;;;;;;;;;5009527;28;20095;-64
2021/03/14 00:10:27;;;;;;;6.85;4.70;;;;;;;;;;5013187;28;20034;-64
2021/03/14 00:12:53;;;;;;;4.50;3.58;;;;;;;;;;5013728;28;20026;-64
2021/03/14 00:15:22;;;;;;;9.05;5.47;;;;;;;;;;5013487;28;20030;-64
2021/03/14 00:17:48;;;;;;;9.07;5.93;;;;;;;;;;5013335;28;20061;-64
2021/03/14 00:20:14;;;;;;;11.68;5.63;;;;;;;;;;5013428;28;20053;-64
2021/03/14 00:22:39;;;;;;;11.60;6.30;;;;;;;;;;5013220;28;20507;-64
2021/03/14 00:25:06;;;;;;;8.85;5.30;;;;;;;;;;5013113;28;20513;-64
2021/03/14 00:27:32;;;;;;;9.60;6.15;;;;;;;;;;5013081;28;20026;-64
2021/03/14 00:29:57;;;;;;;9.57;5.72;;;;;;;;;;5013131;28;20393;-64
2021/03/14 00:32:23;;;;;;;8.40;4.78;;;;;;;;;;5013084;28;20018;-64
2021/03/14 00:34:48;;;;;;;8.18;4.80;;;;;;;;;;5013084;28;20030;-64
2021/03/14 00:37:14;;;;;;;8.45;5.35;;;;;;;;;;5013225;28;20018;-64
2021/03/14 00:39:39;;;;;;;7.93;5.18;;;;;;;;;;5011721;28;20116;-64
2021/03/14 00:42:05;;;;;;;9.80;5.75;;;;;;;;;;5013065;28;20078;-64
2021/03/14 00:44:30;;;;;;;8.13;4.72;;;;;;;;;;5013338;28;20030;-64
2021/03/14 00:46:57;;;;;;;6.53;5.00;;;;;;;;;;5011502;28;20025;-64
2021/03/14 00:49:22;;;;;;;7.38;5.03;;;;;;;;;;5011612;28;20121;-64
2021/03/14 00:51:48;;;;;;;6.88;4.65;;;;;;;;;;5011865;28;20483;-64
2021/03/14 00:54:15;;;;;;;4.40;2.97;;;;;;;;;;5011434;28;20061;-64
2021/03/14 00:56:40;;;;;;;6.53;3.90;;;;;;;;;;5012359;28;20493;-64
2021/03/14 00:59:06;;;;;;;5.95;3.70;;;;;;;;;;5012800;28;20113;-64
2021/03/14 01:01:31;;;;;;;4.03;3.22;;;;;;;;;;5012542;28;20018;-64
2021/03/14 01:03:58;;;;;;;5.43;3.75;;;;;;;;;;5013101;28;20026;-64
2021/03/14 01:06:24;;;;;;;3.97;3.58;;;;;;;;;;5012396;28;20071;-64
2021/03/14 01:08:50;;;;;;;6.03;4.00;;;;;;;;;;5012919;28;20034;-64
2021/03/14 01:11:18;;;;;;;3.97;3.40;;;;;;;;;;5011355;28;20068;-64
2021/03/14 01:14:04;;;;;;;3.40;3.10;;;;;;;;;;5012870;28;20044;-64
2021/03/14 01:16:38;;;;;;;5.53;3.13;;;;;;;;;;5011443;28;20037;-64
2021/03/14 01:19:05;;;;;;;4.63;3.15;;;;;;;;;;5011293;28;20030;-64
2021/03/14 01:21:32;;;;;;;3.33;3.03;;;;;;;;;;5011692;28;20014;-64
2021/03/14 01:23:57;;;;;;;3.00;2.63;;;;;;;;;;5012192;28;20074;-64
2021/03/14 01:26:23;;;;;;;3.42;3.13;;;;;;;;;;5012271;28;20389;-64
2021/03/14 01:28:48;;;;;;;2.70;2.38;;;;;;;;;;5012262;28;20026;-64
2021/03/14 01:31:14;;;;;;;2.80;2.08;;;;;;;;;;5012461;28;20025;-64
2021/03/14 01:33:39;;;;;;;1.92;1.83;;;;;;;;;;5012057;28;20034;-59
2021/03/14 01:36:05;;;;;;;2.33;2.13;;;;;;;;;;5012225;28;20022;-59
2021/03/14 01:38:31;;;;;;;2.28;1.77;;;;;;;;;;5011239;28;20075;-59
2021/03/14 01:40:56;;;;;;;2.17;1.65;;;;;;;;;;5012115;28;20478;-59
2021/03/14 01:43:22;;;;;;;3.50;2.17;;;;;;;;;;5011800;28;20129;-59
2021/03/14 01:45:47;;;;;;;2.97;1.80;;;;;;;;;;5012160;28;20036;-59
2021/03/14 01:48:16;;;;;;;2.10;1.77;;;;;;;;;;5012200;28;20034;-59
2021/03/14 01:50:42;;;;;;;2.08;1.50;;;;;;;;;;5011841;28;20018;-59
2021/03/14 01:53:07;;;;;;;2.90;1.75;;;;;;;;;;5012294;28;20037;-59
2021/03/14 01:55:33;;;;;;;1.70;1.60;;;;;;;;;;5010712;28;20041;-59
2021/03/14 01:57:58;;;;;;;3.28;1.52;;;;;;;;;;5012054;28;20033;-58
2021/03/14 02:00:25;;;;;;;1.60;1.50;;;;;;;;;;5010398;28;20377;-59
2021/03/14 02:02:51;;;;;;;2.65;1.55;;;;;;;;;;5011649;28;20030;-59
2021/03/14 02:05:18;;;;;;;1.98;1.50;;;;;;;;;;5010764;28;20095;-59
2021/03/14 02:07:45;;;;;;;2.40;1.48;;;;;;;;;;5011340;28;20504;-59
2021/03/14 02:10:12;;;;;;;2.97;1.80;;;;;;;;;;5011940;28;20486;-59
2021/03/14 02:12:58;;;;;;;2.30;1.70;;;;;;;;;;5011724;28;20030;-58
2021/03/14 02:15:24;;;;;;;1.90;1.40;;;;;;;;;;5011480;28;20073;-59
2021/03/14 02:17:50;;;;;;;2.28;1.40;;;;;;;;;;5011831;28;20476;-59
2021/03/14 02:20:17;;;;;;;1.35;1.25;;;;;;;;;;5011641;28;20481;-59
2021/03/14 02:22:46;;;;;;;1.48;1.38;;;;;;;;;;5011559;28;20043;-59
2021/03/14 02:25:17;;;;;;;3.72;1.55;;;;;;;;;;5011751;28;20101;-58
2021/03/14 02:27:43;;;;;;;2.15;1.20;;;;;;;;;;5011415;28;20030;-59
2021/03/14 02:30:10;;;;;;;1.33;1.17;;;;;;;;;;5011316;28;20154;-59
2021/03/14 02:32:36;;;;;;;1.52;1.40;;;;;;;;;;5010147;28;20186;-59
2021/03/14 02:35:03;;;;;;;1.08;0.98;;;;;;;;;;5011221;28;20545;-59
2021/03/14 02:37:29;;;;;;;1.52;1.30;;;;;;;;;;5011351;28;20126;-59
2021/03/14 02:39:55;;;;;;;1.60;1.20;;;;;;;;;;5009916;28;20530;-59
2021/03/14 02:42:22;;;;;;;1.50;1.27;;;;;;;;;;5011391;28;20106;-59
2021/03/14 02:44:49;;;;;;;1.40;1.30;;;;;;;;;;5011291;28;20029;-59
2021/03/14 02:47:17;;;;;;;2.60;1.17;;;;;;;;;;5011091;28;20026;-59
2021/03/14 02:49:42;;;;;;;1.60;1.20;;;;;;;;;;5011333;28;20030;-59
2021/03/14 02:52:09;;;;;;;1.00;0.90;;;;;;;;;;5010938;28;20033;-59
2021/03/14 02:54:34;;;;;;;1.58;1.38;;;;;;;;;;5010889;28;20025;-59
2021/03/14 02:57:00;;;;;;;1.30;1.20;;;;;;;;;;5010666;28;20091;-59
2021/03/14 02:59:26;;;;;;;3.22;1.38;;;;;;;;;;5010792;28;20049;-59
2021/03/14 03:01:52;;;;;;;1.40;1.27;;;;;;;;;;5009520;28;20462;-59
2021/03/14 03:04:21;;;;;;;2.13;1.13;;;;;;;;;;5009422;28;20022;-59
2021/03/14 03:06:47;;;;;;;1.20;1.10;;;;;;;;;;5022223;28;20051;-59
2021/03/14 03:09:13;;;;;;;1.20;1.10;;;;;;;;;;5028014;28;20136;-59
2021/03/14 03:11:39;;;;;;;1.50;1.40;;;;;;;;;;5038875;28;20049;-59
2021/03/14 03:14:05;;;;;;;1.52;1.38;;;;;;;;;;5010980;28;20488;-59
2021/03/14 03:16:32;;;;;;;1.65;1.27;;;;;;;;;;5010983;28;20070;-59
2021/03/14 03:18:58;;;;;;;1.13;1.10;;;;;;;;;;5010688;28;20061;-59
2021/03/14 03:21:25;;;;;;;0.80;0.80;;;;;;;;;;5010461;28;20106;-59
2021/03/14 03:23:50;;;;;;;1.20;1.10;;;;;;;;;;5010601;28;20353;-59
2021/03/14 03:26:16;;;;;;;1.35;0.80;;;;;;;;;;5010554;28;20159;-59
2021/03/14 03:28:42;;;;;;;2.58;1.02;;;;;;;;;;5010779;28;20029;-59
2021/03/14 03:31:07;;;;;;;1.13;1.02;;;;;;;;;;5010854;28;20057;-59
2021/03/14 03:33:33;;;;;;;1.00;0.93;;;;;;;;;;5010948;28;20487;-58
2021/03/14 03:35:59;;;;;;;2.03;1.17;;;;;;;;;;5010481;28;20496;-59
2021/03/14 03:38:24;;;;;;;1.13;1.02;;;;;;;;;;5010527;28;20028;-59
2021/03/14 03:40:50;;;;;;;2.55;0.90;;;;;;;;;;5009684;28;20074;-58
2021/03/14 03:43:27;;;;;;;1.50;1.00;;;;;;;;;;5010539;28;20113;-58
2021/03/14 03:45:56;;;;;;;1.35;1.02;;;;;;;;;;5014363;28;20112;-59
2021/03/14 03:48:26;;;;;;;1.50;1.33;;;;;;;;;;5013773;28;20504;-59
2021/03/14 03:50:55;;;;;;;0.80;0.80;;;;;;;;;;5013830;28;20388;-58
2021/03/14 03:53:21;;;;;;;1.30;1.20;;;;;;;;;;5013668;28;20489;-59
2021/03/14 03:55:50;;;;;;;1.35;1.00;;;;;;;;;;5013801;28;20030;-59
2021/03/14 03:58:16;;;;;;;0.80;0.80;;;;;;;;;;5014009;28;20041;-59
2021/03/14 04:00:42;;;;;;;1.00;0.90;;;;;;;;;;5013817;28;20026;-59
2021/03/14 04:03:08;;;;;;;1.42;0.93;;;;;;;;;;5013778;28;20021;-59
2021/03/14 04:05:33;;;;;;;0.73;0.60;;;;;;;;;;5013899;28;20117;-59
2021/03/14 04:08:00;;;;;;;1.75;0.82;;;;;;;;;;5013813;28;20167;-59
2021/03/14 04:10:28;;;;;;;0.80;0.80;;;;;;;;;;5013367;28;20040;-59
2021/03/14 04:12:53;;;;;;;1.35;1.10;;;;;;;;;;5013871;28;20034;-58
2021/03/14 04:15:21;;;;;;;0.85;0.85;;;;;;;;;;5013456;28;20531;-59
2021/03/14 04:17:47;;;;;;;1.00;0.90;;;;;;;;;;5013361;28;20045;-63
2021/03/14 04:20:15;;;;;;;1.27;1.17;;;;;;;;;;5013455;28;20389;-64
2021/03/14 04:22:43;;;;;;;2.63;1.45;;;;;;;;;;5013524;28;20020;-64
2021/03/14 04:25:09;;;;;;;1.15;1.05;;;;;;;;;;5013322;28;20049;-64
2021/03/14 04:27:36;;;;;;;1.23;1.13;;;;;;;;;;5013130;28;20117;-64
2021/03/14 04:30:01;;;;;;;1.58;1.17;;;;;;;;;;5013024;28;20038;-63
2021/03/14 04:32:27;;;;;;;1.15;1.00;;;;;;;;;;5012718;28;20022;-64
2021/03/14 04:34:53;;;;;;;1.10;1.00;;;;;;;;;;5012937;28;20037;-63
2021/03/14 04:37:20;;;;;;;1.42;1.00;;;;;;;;;;5012002;28;20022;-63
2021/03/14 04:39:46;;;;;;;1.45;1.35;;;;;;;;;;5013068;28;20054;-63
2021/03/14 04:42:12;;;;;;;1.35;1.10;;;;;;;;;;5012912;28;20461;-63
2021/03/14 04:44:39;;;;;;;0.95;0.95;;;;;;;;;;5011530;28;20083;-63
2021/03/14 04:47:04;;;;;;;1.70;1.08;;;;;;;;;;5011546;28;20544;-63
2021/03/14 04:49:30;;;;;;;0.80;0.80;;;;;;;;;;5013069;28;20113;-64
2021/03/14 04:51:56;;;;;;;0.90;0.90;;;;;;;;;;5013034;28;20461;-64
2021/03/14 04:54:23;;;;;;;1.27;1.17;;;;;;;;;;5012947;28;20026;-64
2021/03/14 04:56:49;;;;;;;2.53;0.77;;;;;;;;;;5011718;28;20014;-64
2021/03/14 04:59:16;;;;;;;1.00;0.90;;;;;;;;;;5012800;28;20108;-64
2021/03/14 05:01:42;;;;;;;1.10;1.00;;;;;;;;;;5012806;28;20104;-64
2021/03/14 05:04:09;;;;;;;2.33;1.00;;;;;;;;;;5011353;28;20026;-64
2021/03/14 05:06:35;;;;;;;1.20;1.10;;;;;;;;;;5012039;28;20051;-64
2021/03/14 05:09:01;;;;;;;1.20;0.98;;;;;;;;;;5012092;28;20573;-64
2021/03/14 05:11:27;;;;;;;1.30;0.98;;;;;;;;;;5011630;28;20129;-64
2021/03/14 05:13:52;;;;;;;2.25;1.20;;;;;;;;;;5012212;28;20113;-63
2021/03/14 05:16:18;;;;;;;1.90;1.20;;;;;;;;;;5012126;28;20042;-63
2021/03/14 05:18:44;;;;;;;1.95;1.05;;;;;;;;;;5012281;28;20022;-63
2021/03/14 05:21:10;;;;;;;1.30;1.20;;;;;;;;;;5012335;28;20498;-63
2021/03/14 05:23:36;;;;;;;1.20;1.02;;;;;;;;;;5011915;28;20018;-63
2021/03/14 05:26:02;;;;;;;1.60;1.15;;;;;;;;;;5011858;28;20400;-63
2021/03/14 05:28:28;;;;;;;1.30;1.05;;;;;;;;;;5012324;28;20048;-63
2021/03/14 05:30:53;;;;;;;2.08;1.55;;;;;;;;;;5012153;28;20060;-63
2021/03/14 05:33:19;;;;;;;1.65;1.55;;;;;;;;;;5012553;28;20040;-64
2021/03/14 05:35:44;;;;;;;1.92;1.73;;;;;;;;;;5012322;28;20014;-63
2021/03/14 05:38:10;;;;;;;2.15;1.48;;;;;;;;;;5012589;28;20527;-64
2021/03/14 05:40:35;;;;;;;1.67;1.58;;;;;;;;;;5011971;28;20430;-63
2021/03/14 05:43:04;;;;;;;1.42;1.05;;;;;;;;;;5012211;28;20029;-64
2021/03/14 05:45:29;;;;;;;1.20;1.10;;;;;;;;;;5011722;28;20034;-64
2021/03/14 05:47:57;;;;;;;1.20;1.10;;;;;;;;;;5012242;28;20074;-63
2021/03/14 05:50:24;;;;;;;1.25;1.15;;;;;;;;;;5012290;28;20022;-63
2021/03/14 05:52:50;;;;;;;1.30;1.08;;;;;;;;;;5011711;28;20026;-60
2021/03/14 05:55:20;;;;;;;0.93;0.80;;;;;;;;;;5011673;28;20030;-60
2021/03/14 05:57:46;;;;;;;1.35;1.25;;;;;;;;;;5011886;28;20032;-59
2021/03/14 06:00:15;;;;;;;1.15;1.02;;;;;;;;;;5011990;28;20022;-59
2021/03/14 06:02:41;;;;;;;0.98;0.88;;;;;;;;;;5011866;28;20036;-58
2021/03/14 06:05:08;;;;;;;1.10;1.00;;;;;;;;;;4990621;28;20044;-58
2021/03/14 06:07:33;;;;;;;0.82;0.82;;;;;;;;;;4990404;28;20032;-58
2021/03/14 06:09:59;;;;;;;1.13;1.05;;;;;;;;;;4990547;28;20448;-58
2021/03/14 06:12:24;;;;;;;1.20;0.93;;;;;;;;;;4990248;28;20524;-60
2021/03/14 06:14:50;;;;;;;1.60;1.10;;;;;;;;;;4990326;28;20046;-60
2021/03/14 06:17:16;;;;;;;2.22;1.20;;;;;;;;;;4990478;28;20038;-59
2021/03/14 06:19:42;;;;;;;1.63;1.13;;;;;;;;;;4990364;28;20500;-58
2021/03/14 06:22:24;;;;;;;1.75;1.13;;;;;;;;;;4990362;28;20022;-58
2021/03/14 06:24:52;;;;;;;1.25;0.95;;;;;;;;;;4988090;28;20040;-58
2021/03/14 06:27:51;;;;;;;1.63;1.33;;;;;;;;;;4990294;28;20086;-58
2021/03/14 06:30:17;;;;;;;0.88;0.88;;;;;;;;;;4990274;28;20088;-58
2021/03/14 06:32:59;;;;;;;1.17;1.00;;;;;;;;;;4989033;28;20478;-58
2021/03/14 06:35:24;;;;;;;1.88;1.05;;;;;;;;;;4989660;28;20121;-58
2021/03/14 06:37:50;;;;;;;1.30;1.17;;;;;;;;;;4990075;28;20559;-63
2021/03/14 06:40:15;;;;;;;1.55;1.45;;;;;;;;;;4990018;28;20026;-63
2021/03/14 06:42:45;;;;;;;2.20;1.50;;;;;;;;;;4990060;28;20069;-63
2021/03/14 06:45:14;;;;;;;1.42;1.15;;;;;;;;;;4988498;28;20497;-64
2021/03/14 06:47:47;;;;;;;1.20;0.90;;;;;;;;;;4991737;28;20030;-64
2021/03/14 06:50:17;;;;;;;1.25;0.98;;;;;;;;;;4992128;28;20037;-65
2021/03/14 06:53:01;;;;;;;1.30;1.17;;;;;;;;;;4992006;28;20041;-64
2021/03/14 06:55:27;;;;;;;2.03;1.25;;;;;;;;;;4992022;28;20837;-64
2021/03/14 06:57:53;;;;;;;1.50;1.40;;;;;;;;;;4991419;28;20049;-64
2021/03/14 07:00:19;;;;;;;2.45;1.75;;;;;;;;;;4991587;28;20018;-64
2021/03/14 07:02:45;;;;;;;2.13;1.75;;;;;;;;;;4991426;28;20045;-64
2021/03/14 07:05:10;;;;;;;2.83;1.45;;;;;;;;;;4991294;28;20067;-64
2021/03/14 07:07:39;;;;;;;1.65;1.13;;;;;;;;;;4991607;28;20022;-64
2021/03/14 07:10:10;;;;;;;1.77;1.38;;;;;;;;;;4991430;28;20103;-64
2021/03/14 07:12:36;;;;;;;1.80;1.30;;;;;;;;;;4991325;28;20046;-64
2021/03/14 07:15:19;;;;;;;2.47;1.30;;;;;;;;;;4991201;28;20473;-65
2021/03/14 07:17:52;;;;;;;1.80;1.52;;;;;;;;;;4991597;28;20030;-64
2021/03/14 07:20:19;;;;;;;1.40;1.30;;;;;;;;;;4990955;28;20711;-64
2021/03/14 07:22:56;;;;;;;1.73;1.40;;;;;;;;;;4991163;28;20029;-64
2021/03/14 07:25:23;;;;;;;1.35;1.25;;;;;;;;;;4991477;28;20036;-64
2021/03/14 07:27:49;;;;;;;1.70;1.15;;;;;;;;;;4991474;28;20458;-64
2021/03/14 07:30:17;;;;;;;1.52;1.33;;;;;;;;;;4991079;28;20034;-64
2021/03/14 07:32:43;;;;;;;1.20;1.00;;;;;;;;;;5006415;28;20500;-64
2021/03/14 07:35:09;;;;;;;1.27;1.17;;;;;;;;;;4989608;28;20585;-64
2021/03/14 07:37:41;;;;;;;3.08;1.58;;;;;;;;;;4979735;28;20109;-64
2021/03/14 07:40:07;;;;;;;1.77;1.15;;;;;;;;;;4986844;28;20062;-64
2021/03/14 07:42:32;;;;;;;1.10;1.00;;;;;;;;;;4974211;28;20022;-65
2021/03/14 07:44:58;;;;;;;1.35;1.25;;;;;;;;;;4979717;28;20520;-64
2021/03/14 07:47:26;;;;;;;1.42;1.13;;;;;;;;;;4980946;28;20017;-63
2021/03/14 07:49:52;;;;;;;1.27;0.80;;;;;;;;;;4982181;28;20031;-64
2021/03/14 07:52:29;;;;;;;0.32;0.32;;;;;;;;;;4979148;28;20027;-64
2021/03/14 07:55:02;;;;;;;1.73;1.27;;;;;;;;;;4976413;28;20546;-64
2021/03/14 07:57:31;;;;;;;1.45;1.02;;;;;;;;;;4990708;28;20389;-62
2021/03/14 07:59:56;;;;;;;1.58;1.27;;;;;;;;;;4983082;28;20027;-64
2021/03/14 08:02:24;;;;;;;1.30;1.02;;;;;;;;;;4987735;28;20026;-64
2021/03/14 08:04:51;;;;;;;0.68;0.52;;;;;;;;;;4981500;28;20019;-64
2021/03/14 08:07:43;;;;;;;0.73;0.60;;;;;;;;;;4976905;28;20046;-64
2021/03/14 08:10:10;;;;;;;1.23;0.55;;;;;;;;;;4970002;28;20057;-63
2021/03/14 08:12:36;;;;;;;1.13;0.70;;;;;;;;;;4970917;28;20063;-64
2021/03/14 08:15:17;;;;;;;0.82;0.50;;;;;;;;;;4971286;28;20027;-64
2021/03/14 08:17:43;;;;;;;1.73;0.90;;;;;;;;;;4979235;28;20053;-63
2021/03/14 08:20:12;;;;;;;0.63;0.63;;;;;;;;;;4992381;28;20370;-63
2021/03/14 08:22:37;;;;;;;1.98;1.45;;;;;;;;;;4971000;28;20490;-63
2021/03/14 08:25:17;;;;;;;0.88;0.57;;;;;;;;;;4969790;28;20023;-63
2021/03/14 08:27:46;;;;;;;0.88;0.75;;;;;;;;;;4971186;28;20054;-63
2021/03/14 08:30:32;;;;;;;1.52;1.10;;;;;;;;;;4969934;28;20019;-63
2021/03/14 08:33:18;;;;;;;0.80;0.60;;;;;;;;;;4975990;28;20512;-63
2021/03/14 08:35:46;;;;;;;0.95;0.90;;;;;;;;;;4975452;28;20034;-63
2021/03/14 08:38:32;;;;;;;1.45;1.35;;;;;;;;;;5003370;28;20072;-63
2021/03/14 08:41:16;;;;;;;1.50;1.15;;;;;;;;;;5003070;28;20050;-63
2021/03/14 08:43:42;;;;;;;1.40;1.25;;;;;;;;;;5003185;28;20033;-63
2021/03/14 08:46:10;;;;;;;2.83;1.65;;;;;;;;;;4972054;28;20018;-63
2021/03/14 08:48:44;;;;;;;0.60;0.60;;;;;;;;;;5002977;28;20035;-63
2021/03/14 08:51:11;;;;;;;2.30;1.27;;;;;;;;;;5003826;28;20037;-63
2021/03/14 08:53:40;;;;;;;2.05;1.17;;;;;;;;;;5004666;28;20474;-63
2021/03/14 08:56:28;;;;;;;2.80;1.88;;;;;;;;;;4973876;28;20125;-63
2021/03/14 08:59:07;;;;;;;2.00;1.80;;;;;;;;;;4973486;28;20165;-63
2021/03/14 09:01:35;;;;;;;2.85;2.08;;;;;;;;;;5004508;28;20038;-63
2021/03/14 09:04:16;;;;;;;1.88;1.20;;;;;;;;;;4988631;28;20027;-63
2021/03/14 09:06:48;;;;;;;1.55;1.45;;;;;;;;;;4972321;28;20121;-63
2021/03/14 09:09:20;;;;;;;2.90;1.88;;;;;;;;;;4973570;28;20034;-63
2021/03/14 09:11:57;;;;;;;3.10;2.35;;;;;;;;;;5004062;28;20051;-63
2021/03/14 09:14:43;;;;;;;3.08;1.75;;;;;;;;;;5004690;28;20042;-63
2021/03/14 09:17:13;;;;;;;2.72;1.75;;;;;;;;;;5004414;28;20035;-63
2021/03/14 09:19:48;;;;;;;2.53;1.42;;;;;;;;;;4988115;28;20034;-63
2021/03/14 09:22:19;;;;;;;3.38;2.10;;;;;;;;;;4973123;28;20041;-63
2021/03/14 09:24:44;;;;;;;;;;;;;;;;;;4988459;28;20425;-63
2021/03/14 09:27:13;;;;;;;1.50;1.27;;;;;;;;;;4988143;28;19937;-63
2021/03/14 09:29:49;;;;;;;3.65;1.85;;;;;;;;;;5004436;28;20031;-63
2021/03/14 09:32:29;;;;;;;3.33;2.20;;;;;;;;;;4988207;28;20027;-63
2021/03/14 09:35:13;;;;;;;4.00;2.35;;;;;;;;;;4987477;28;20050;-63
2021/03/14 09:37:42;;;;;;;2.72;1.48;;;;;;;;;;4977618;28;20390;-63
2021/03/14 09:40:16;;;;;;;2.42;2.13;;;;;;;;;;4983499;28;20014;-63
2021/03/14 09:42:42;;;;;;;1.75;1.65;;;;;;;;;;4988898;28;20034;-63
2021/03/14 09:45:28;;;;;;;3.08;1.75;;;;;;;;;;4983828;28;20504;-64
2021/03/14 09:47:57;;;;;;;2.80;2.53;;;;;;;;;;4994210;28;20034;-62
2021/03/14 09:50:33;;;;;;;5.35;2.42;;;;;;;;;;4976035;28;20075;-64
2021/03/14 09:53:00;;;;;;;4.43;2.88;;;;;;;;;;5004088;28;20129;-63
2021/03/14 09:55:43;;;;;;;3.53;2.53;;;;;;;;;;5019300;28;20026;-63
2021/03/14 09:58:14;;;;;;;3.78;2.10;;;;;;;;;;4975452;28;20034;-59
2021/03/14 10:00:44;;;;;;;3.25;2.20;;;;;;;;;;4998296;28;20481;-59
2021/03/14 10:03:11;;;;;;;3.58;2.45;;;;;;;;;;5012735;28;20014;-59
2021/03/14 10:06:06;;;;;;;2.45;1.98;;;;;;;;;;4993879;28;20023;-59
2021/03/14 10:08:54;;;;;;;2.70;2.10;;;;;;;;;;4976004;28;20042;-58
2021/03/14 10:11:20;;;;;;;2.80;1.98;;;;;;;;;;4981307;28;20030;-59
2021/03/14 10:13:59;;;;;;;3.33;2.40;;;;;;;;;;4984257;28;20042;-58
2021/03/14 10:16:27;;;;;;;2.90;1.83;;;;;;;;;;4981900;28;20117;-58
2021/03/14 10:18:59;;;;;;;4.15;2.22;;;;;;;;;;5011892;28;20022;-58
2021/03/14 10:21:28;;;;;;;2.45;2.13;;;;;;;;;;4978781;28;20041;-63
2021/03/14 10:24:22;;;;;;;3.95;2.58;;;;;;;;;;4983065;28;20026;-63
2021/03/14 10:27:01;;;;;;;3.10;2.28;;;;;;;;;;4976231;28;20035;-64
2021/03/14 10:29:39;;;;;;;4.50;2.38;;;;;;;;;;4998949;28;20122;-64
2021/03/14 10:32:29;;;;;;;3.90;2.08;;;;;;;;;;4982515;28;20038;-64
2021/03/14 10:34:56;;;;;;;4.38;2.08;;;;;;;;;;4996661;28;20035;-58
2021/03/14 10:37:33;;;;;;;2.10;1.83;;;;;;;;;;4978940;28;20026;-62
2021/03/14 10:40:06;;;;;;;2.75;2.22;;;;;;;;;;4994759;28;20023;-63
2021/03/14 10:42:34;;;;;;;3.28;2.30;;;;;;;;;;5012806;28;20019;-63
2021/03/14 10:45:07;;;;;;;2.42;1.50;;;;;;;;;;4984746;28;20466;-64
2021/03/14 10:47:33;;;;;;;3.17;2.28;;;;;;;;;;5001910;28;20378;-63
2021/03/14 10:50:07;;;;;;;4.60;2.47;;;;;;;;;;4981258;28;20026;-63
2021/03/14 10:52:33;;;;;;;4.13;2.63;;;;;;;;;;4979020;28;20039;-63
2021/03/14 10:55:19;;;;;;;5.07;2.33;;;;;;;;;;4981469;28;20019;-58
2021/03/14 10:57:45;;;;;;;4.38;2.58;;;;;;;;;;5001919;28;20050;-58
2021/03/14 11:00:14;;;;;;;9.63;4.32;;;;;;;;;;4982270;28;20418;-59
2021/03/14 11:02:56;;;;;;;3.83;2.70;;;;;;;;;;4987058;28;20030;-59
2021/03/14 11:05:26;;;;;;;4.53;3.00;;;;;;;;;;5011889;28;20092;-58
2021/03/14 11:07:58;;;;;;;2.97;2.20;;;;;;;;;;4993301;28;20379;-59
2021/03/14 11:10:32;;;;;;;4.53;2.80;;;;;;;;;;4993189;28;20058;-59
2021/03/14 11:13:18;;;;;;;5.53;3.03;;;;;;;;;;4979675;28;20055;-59
2021/03/14 11:16:03;;;;;;;4.57;2.53;;;;;;;;;;4973502;28;20050;-59
2021/03/14 11:18:31;;;;;;;2.88;1.77;;;;;;;;;;5011672;28;20038;-59
2021/03/14 11:21:07;;;;;;;3.45;2.42;;;;;;;;;;4975344;28;20059;-58
2021/03/14 11:23:36;;;;;;;2.17;1.98;;;;;;;;;;5000777;28;20474;-59
2021/03/14 11:26:08;;;;;;;2.88;2.08;;;;;;;;;;4972248;28;20023;-58
2021/03/14 11:28:48;;;;;;;2.58;2.28;;;;;;;;;;4975655;28;20478;-59
2021/03/14 11:31:22;;;;;;;3.35;2.17;;;;;;;;;;4998338;28;20034;-58
2021/03/14 11:33:48;;;;;;;3.88;1.83;;;;;;;;;;4994405;28;20050;-59
2021/03/14 11:36:19;;;;;;;2.42;1.65;;;;;;;;;;4980088;28;20034;-59
2021/03/14 11:39:05;;;;;;;3.10;1.80;;;;;;;;;;4982803;28;20039;-58
2021/03/14 11:41:45;;;;;;;1.90;1.73;;;;;;;;;;5013249;28;20023;-59
2021/03/14 11:44:31;;;;;;;2.60;2.10;;;;;;;;;;4970303;28;20034;-59
2021/03/14 11:46:58;;;;;;;3.15;1.90;;;;;;;;;;5006125;28;20057;-59
2021/03/14 11:49:35;;;;;;;2.78;2.17;;;;;;;;;;4996708;28;20015;-58
2021/03/14 11:52:00;;;;;;;3.03;2.10;;;;;;;;;;4974705;28;20041;-59
2021/03/14 11:54:27;;;;;;;1.95;1.50;;;;;;;;;;4977319;28;20046;-59
2021/03/14 11:56:56;;;;;;;1.27;1.08;;;;;;;;;;4981877;28;20042;-59
2021/03/14 11:59:26;;;;;;;2.28;1.73;;;;;;;;;;4983352;28;20030;-59
2021/03/14 12:02:11;;;;;;;1.95;1.30;;;;;;;;;;4974703;28;20122;-58
2021/03/14 12:04:56;;;;;;;2.60;1.55;;;;;;;;;;5000844;28;20048;-58
2021/03/14 12:07:41;;;;;;;1.17;1.08;;;;;;;;;;4979852;28;20066;-58
2021/03/14 12:10:07;;;;;;;1.77;1.42;;;;;;;;;;4979986;28;20506;-59
2021/03/14 12:12:33;;;;;;;1.60;1.50;;;;;;;;;;4983139;28;20406;-59
2021/03/14 12:15:07;;;;;;;1.92;1.52;;;;;;;;;;5002015;28;20474;-59
2021/03/14 12:17:40;;;;;;;1.45;1.25;;;;;;;;;;4994737;28;20115;-59
2021/03/14 12:20:26;;;;;;;1.63;1.52;;;;;;;;;;5026339;28;20042;-59
2021/03/14 12:23:18;;;;;;;2.42;1.77;;;;;;;;;;4988378;28;20034;-59
2021/03/14 12:25:49;;;;;;;1.80;1.70;;;;;;;;;;4993605;28;20031;-59
2021/03/14 12:28:22;;;;;;;2.17;1.40;;;;;;;;;;4982270;28;20041;-59
2021/03/14 12:30:51;;;;;;;1.33;1.23;;;;;;;;;;5004710;28;20030;-58
2021/03/14 12:33:17;;;;;;;1.95;1.30;;;;;;;;;;4988437;28;20029;-59
2021/03/14 12:35:43;;;;;;;1.63;1.30;;;;;;;;;;4997118;28;20542;-59
2021/03/14 12:38:16;;;;;;;1.40;1.30;;;;;;;;;;4989850;28;20025;-59
2021/03/14 12:40:47;;;;;;;2.53;1.50;;;;;;;;;;4982333;28;20035;-59
2021/03/14 12:43:14;;;;;;;1.48;1.35;;;;;;;;;;4984806;28;20542;-59
2021/03/14 12:45:45;;;;;;;;;;;;;;;;;;4989959;28;20033;-59
2021/03/14 12:48:11;;;;;;;1.90;1.20;;;;;;;;;;4990390;28;19914;-63
2021/03/14 12:50:43;;;;;;;1.27;1.10;;;;;;;;;;4986499;28;20015;-63
2021/03/14 12:53:08;;;;;;;2.13;1.42;;;;;;;;;;4979706;28;20038;-63
2021/03/14 12:55:34;;;;;;;2.00;1.40;;;;;;;;;;4972495;28;20031;-63
2021/03/14 12:58:00;;;;;;;1.52;1.38;;;;;;;;;;4989145;28;20019;-63
2021/03/14 13:00:33;;;;;;;1.27;1.02;;;;;;;;;;4972880;28;20079;-63
2021/03/14 13:02:59;;;;;;;1.45;1.00;;;;;;;;;;4977407;28;20027;-64
2021/03/14 13:05:26;;;;;;;1.42;1.10;;;;;;;;;;4987417;28;20022;-63
2021/03/14 13:07:51;;;;;;;1.67;1.40;;;;;;;;;;4993302;28;20511;-63
2021/03/14 13:10:17;;;;;;;1.38;1.27;;;;;;;;;;4993279;28;20109;-63
2021/03/14 13:12:43;;;;;;;1.30;1.17;;;;;;;;;;4985706;28;20129;-63
2021/03/14 13:15:09;;;;;;;1.65;1.52;;;;;;;;;;4992773;28;20084;-63
2021/03/14 13:17:35;;;;;;;1.20;1.10;;;;;;;;;;5007275;28;20027;-63
2021/03/14 13:20:03;;;;;;;2.33;1.30;;;;;;;;;;4991770;28;20018;-63
2021/03/14 13:22:33;;;;;;;1.90;1.35;;;;;;;;;;4986587;28;20019;-63
2021/03/14 13:24:58;;;;;;;1.25;1.15;;;;;;;;;;4978163;28;20037;-66
2021/03/14 13:27:24;;;;;;;1.98;1.80;;;;;;;;;;4986622;28;20466;-58
2021/03/14 13:29:49;;;;;;;1.10;1.00;;;;;;;;;;4978357;28;20042;-59
2021/03/14 13:32:15;;;;;;;2.63;1.50;;;;;;;;;;4976976;28;20077;-58
2021/03/14 13:34:41;;;;;;;1.25;1.15;;;;;;;;;;4988404;28;20039;-59
2021/03/14 13:37:08;;;;;;;2.45;1.48;;;;;;;;;;4992607;28;20027;-58
2021/03/14 13:39:34;;;;;;;1.95;1.10;;;;;;;;;;4980053;28;20046;-59
2021/03/14 13:42:00;;;;;;;2.38;1.33;;;;;;;;;;4985929;28;20076;-59
2021/03/14 13:44:30;;;;;;;1.20;1.05;;;;;;;;;;4973317;28;20030;-59
2021/03/14 13:46:56;;;;;;;2.63;1.60;;;;;;;;;;4973015;28;20031;-59
2021/03/14 13:49:22;;;;;;;3.45;2.03;;;;;;;;;;4973207;28;20026;-58
2021/03/14 13:51:48;;;;;;;1.75;1.45;;;;;;;;;;4975052;28;20042;-59
2021/03/14 13:54:14;;;;;;;1.33;1.23;;;;;;;;;;4972989;28;20080;-59
2021/03/14 13:56:40;;;;;;;2.28;1.50;;;;;;;;;;4991304;28;20026;-59
2021/03/14 13:59:05;;;;;;;2.03;1.42;;;;;;;;;;4981491;28;20018;-58
2021/03/14 14:01:31;;;;;;;2.80;2.20;;;;;;;;;;4991728;28;20474;-58
2021/03/14 14:03:59;;;;;;;1.20;1.10;;;;;;;;;;4990429;28;20508;-59
2021/03/14 14:06:24;;;;;;;1.65;1.20;;;;;;;;;;4992257;28;20512;-59
2021/03/14 14:08:50;;;;;;;2.58;1.33;;;;;;;;;;4977958;28;20019;-59
2021/03/14 14:11:19;;;;;;;2.13;1.90;;;;;;;;;;4972604;28;20184;-59
2021/03/14 14:13:44;;;;;;;2.10;1.45;;;;;;;;;;4989498;28;20041;-59
2021/03/14 14:16:10;;;;;;;1.67;1.58;;;;;;;;;;4992558;28;20018;-59
2021/03/14 14:18:36;;;;;;;2.83;1.88;;;;;;;;;;4991937;28;20117;-58
2021/03/14 14:21:02;;;;;;;2.35;1.63;;;;;;;;;;4991895;28;20023;-59
2021/03/14 14:23:28;;;;;;;3.17;1.58;;;;;;;;;;4987190;28;20037;-59
2021/03/14 14:25:53;;;;;;;2.20;1.40;;;;;;;;;;4972822;28;20022;-59
2021/03/14 14:28:19;;;;;;;2.50;1.60;;;;;;;;;;4971352;28;20039;-59
2021/03/14 14:30:45;;;;;;;2.10;1.52;;;;;;;;;;4972718;28;20117;-59
2021/03/14 14:33:11;;;;;;;2.30;1.75;;;;;;;;;;4972581;28;20084;-59
2021/03/14 14:35:36;;;;;;;1.88;1.58;;;;;;;;;;4972706;28;20030;-59
2021/03/14 14:38:05;;;;;;;2.65;1.73;;;;;;;;;;4972320;28;20030;-59
2021/03/14 14:40:31;;;;;;;2.38;1.48;;;;;;;;;;4972661;28;20022;-59
2021/03/14 14:42:57;;;;;;;3.05;1.80;;;;;;;;;;4981909;28;20035;-59
2021/03/14 14:45:23;;;;;;;2.17;1.95;;;;;;;;;;4988948;28;20029;-59
2021/03/14 14:47:49;;;;;;;2.13;1.27;;;;;;;;;;4977428;28;20027;-59
2021/03/14 14:50:14;;;;;;;2.50;2.08;;;;;;;;;;4991455;28;20351;-59
2021/03/14 14:52:40;;;;;;;2.88;1.50;;;;;;;;;;4991397;28;20058;-59
2021/03/14 14:55:06;;;;;;;2.28;1.67;;;;;;;;;;4991407;28;20023;-59